This is the latest recevied weather packets stored in our database for station/object CE4JVU-10. If no packets are shown the sender has not sent any weather packets the latest 10 day(s).
| Time | Temp. | Humidity | Pressure | Rain* | Wind** | Luminosity | Snow |
|---|---|---|---|---|---|---|---|
| 1777794909 | 15° C | 50% | 981.2 hPa | - | - | - | - |
| 1777793109 | 15° C | 50% | 981.7 hPa | - | - | - | - |
| 1777791309 | 15.56° C | 50% | 981.9 hPa | - | - | - | - |
| 1777789509 | 15.56° C | 50% | 981.8 hPa | - | - | - | - |
| 1777787709 | 15.56° C | 50% | 981.6 hPa | - | - | - | - |
| 1777785909 | 16.11° C | 49% | 981.5 hPa | - | - | - | - |
| 1777784109 | 16.11° C | 49% | 981.4 hPa | - | - | - | - |
| 1777782311 | 16.11° C | 49% | 981.5 hPa | - | - | - | - |
| 1777780511 | 16.67° C | 49% | 981.7 hPa | - | - | - | - |
| 1777778711 | 16.67° C | 49% | 982.1 hPa | - | - | - | - |
| 1777776910 | 17.22° C | 48% | 982.1 hPa | - | - | - | - |
| 1777775110 | 17.22° C | 48% | 982.1 hPa | - | - | - | - |
| 1777773310 | 17.78° C | 47% | 981.8 hPa | - | - | - | - |
| 1777771509 | 17.78° C | 47% | 981.8 hPa | - | - | - | - |
| 1777769709 | 18.33° C | 47% | 981.3 hPa | - | - | - | - |
| 1777767909 | 18.89° C | 46% | 981.8 hPa | - | - | - | - |
| 1777766109 | 18.89° C | 45% | 981.8 hPa | - | - | - | - |
| 1777764309 | 19.44° C | 44% | 981.2 hPa | - | - | - | - |
| 1777762509 | 20° C | 44% | 980.8 hPa | - | - | - | - |
| 1777760710 | 20.56° C | 45% | 980.2 hPa | - | - | - | - |
| 1777758910 | 21.67° C | 44% | 979.6 hPa | - | - | - | - |
| 1777757110 | 22.78° C | 41% | 979.5 hPa | - | - | - | - |
| 1777755310 | 24.44° C | 39% | 979.6 hPa | - | - | - | - |
| 1777753509 | 24.44° C | 39% | 979.7 hPa | - | - | - | - |
| 1777751709 | 23.89° C | 41% | 979.6 hPa | - | - | - | - |
* Rain since midnight (hover to see other rain measurements)
** Current wind speed in m/s (hover to see current wind gust speed)